Knoxville, TN (37901)

3:26 PM EDT on September 02, 2015 (GMT -0400)
MountainCrest | | Change Station
CLOSE
Current Station
Personal Weather Station
Location: Knoxville, TN
Elevation: 1405 ft
Nearby Weather Stations

Elev 1405 ft 36.06 °N, 83.91 °W | Updated 8 seconds ago

Partly Cloudy
Partly Cloudy
98.1 °F
Feels Like 104 °F
N
0.0
Wind Variable Wind from South

Today
High -- | Low -- °F
--% Chance of Precip.
Yesterday
High -- | Low -- °F
Precip. -- in
7:07 AM 8:02 PM
Waning Gibbous, 78% visible
Pressure 30.03 in
Visibility 10.0 miles
Clouds Few 4500 ft
Scattered Clouds 18000 ft
Mostly Cloudy 25000 ft
Heat Index 104 °F
Dew Point 68 °F
Humidity 38%
Rainfall Not available.
Snow Depth Not available.
UV 5 out of 12
Pollen 9.60 out of 12
Air Quality Not available.
Flu Activity Not available.
METAR KTYS 021853Z 03007KT 10SM FEW045 SCT180 BKN250 32/18 A3007 RMK AO2 SLP169 T03220183 $
Pressure 30.03 in
Visibility 10.0 miles
Clouds Few 4500 ft
Scattered Clouds 18000 ft
Mostly Cloudy 25000 ft
Heat Index 104 °F
Dew Point 68 °F
Humidity 38%
Rainfall Not available.
Snow Depth Not available.
UV 5 out of 12
Pollen 9.60 out of 12
Air Quality Not available.
Flu Activity Not available.
METAR KTYS 021853Z 03007KT 10SM FEW045 SCT180 BKN250 32/18 A3007 RMK AO2 SLP169 T03220183 $

10-Day Weather Forecast

×

Almanac

Astronomy

Sep. 02, 2015 Rise Set
Actual Time
Civil Twilight
Nautical Twilight
Astronomical Twilight
Moon
Length of Visible Light
Length of Day
Tomorrow will be .
, % of the Moon is Illuminated

Today's Extremes

State Highs State Lows

Community

WunderPhotos

Upload Photos

1,851,799 photos uploaded!

WunderBlogs® & News

Nearby

Air Quality

  Air Quality AQ Index Pollutant
Not available.

Snow Depth

Station Depth Elevation

Earthquake Activity

City Distance Mag. Time & Date
Minimum magnitude displayed is 2.5.

Coastal Water Temperatures

Place Temperature

Stations

Nearby Weather Stations

Station Location Temp. Windchill Dew Point Humidity Wind Precip. Elev Updated Type